Terminal Aerodrome Forecast
Issued by NWS

Home | Current Version | Previous Version | Graphics & Text | Print | Product List | Glossary On
Versions: 1 2 3 4 5 6 7 8 9 10 11 12 13 14 15 16 17
019
FTUS43 KABR 171128
TAFPIR
TAF
KPIR 171128Z 1712/1812 13016KT P6SM FEW250
     FM171800 13018G25KT P6SM BKN110
     FM172200 11010KT P6SM BKN080
     FM180000 07007KT P6SM -RA OVC030
     FM180400 VRB06KT 3SM -RASN OVC008
     FM180600 VRB06KT 4SM -SN OVC008=

USA.gov is the U.S. government's official web portal to all federal, state and local government web resources and services.